Time;durP1;ratioP1;P1;durP2;ratioP2;P2;SDS_P1;SDS_P2;PMS_P1;PMS_P2;Temp;Humidity;BMP_temperature;BMP_pressure;BME280_temperature;BME280_humidity;BME280_pressure;Samples;Min_cycle;Max_cycle;Signal;HPM_P1;HPM_P2
2022/09/25 00:00:54;;;;;;;20.75;9.63;;;;;;;11.26;nan;95606.38;5035312;28;20037;-77
2022/09/25 00:03:22;;;;;;;14.25;9.05;;;;;;;11.25;nan;95612.75;5033494;28;20087;-77
2022/09/25 00:05:47;;;;;;;20.48;10.65;;;;;;;11.25;nan;95610.09;5025102;28;20037;-77
2022/09/25 00:08:15;;;;;;;19.60;10.07;;;;;;;10.33;nan;95476.63;5027913;28;20021;-77
2022/09/25 00:10:46;;;;;;;20.05;9.45;;;;;;;10.70;nan;95561.25;5035352;28;20075;-77
2022/09/25 00:13:12;;;;;;;22.45;9.70;;;;;;;11.08;nan;95595.22;5033992;28;20017;-77
2022/09/25 00:15:43;;;;;;;20.02;9.45;;;;;;;10.62;nan;95532.59;5033587;28;20040;-76
2022/09/25 00:18:09;;;;;;;23.17;9.77;;;;;;;11.06;nan;95602.66;5033682;28;20029;-77
2022/09/25 00:20:35;;;;;;;17.88;10.25;;;;;;;10.15;nan;95536.22;5036225;28;20049;-77
2022/09/25 00:23:01;;;;;;;19.63;10.80;;;;;;;10.69;nan;95610.06;5027279;28;20033;-77
2022/09/25 00:25:27;;;;;;;17.90;10.27;;;;;;;10.82;nan;95602.41;5025796;28;20039;-76
2022/09/25 00:27:55;;;;;;;19.23;9.45;;;;;;;10.55;nan;95559.38;5036281;28;20037;-77
2022/09/25 00:30:20;;;;;;;18.60;9.70;;;;;;;10.19;nan;95505.50;5034688;28;20029;-76
2022/09/25 00:33:01;;;;;;;23.17;10.00;;;;;;;10.51;nan;95562.84;5034370;28;20525;-77
2022/09/25 00:35:28;;;;;;;19.98;10.40;;;;;;;10.56;nan;95579.53;5034181;28;20486;-77
2022/09/25 00:37:53;;;;;;;18.33;10.80;;;;;;;10.20;nan;95516.91;5055291;22;20156;-84
2022/09/25 00:40:19;;;;;;;18.75;10.05;;;;;;;10.50;nan;95583.25;5051032;22;20067;-76
2022/09/25 00:42:44;;;;;;;21.65;9.90;;;;;;;10.68;nan;95588.03;5050558;28;20032;-76
2022/09/25 00:45:18;;;;;;;18.75;10.80;;;;;;;10.24;nan;95523.28;5048380;28;20442;-76
2022/09/25 00:48:01;;;;;;;19.58;11.30;;;;;;;10.46;nan;95560.94;5050187;28;20124;-76
2022/09/25 00:50:37;;;;;;;20.33;10.90;;;;;;;10.62;nan;95580.34;5048365;28;20078;-76
2022/09/25 00:53:12;;;;;;;17.63;11.10;;;;;;;10.62;nan;95573.19;5050137;28;20396;-76
2022/09/25 00:55:42;;;;;;;17.70;11.05;;;;;;;10.27;nan;95531.50;5049159;28;20037;-76
2022/09/25 00:58:09;;;;;;;22.55;11.55;;;;;;;10.48;nan;95595.97;5051250;28;20032;-76
2022/09/25 01:00:34;;;;;;;18.55;11.52;;;;;;;10.23;nan;95596.69;5050548;28;20033;-76
2022/09/25 01:03:01;;;;;;;24.02;11.50;;;;;;;10.41;nan;95592.78;5049206;28;20040;-75
2022/09/25 01:05:32;;;;;;;22.30;12.43;;;;;;;10.46;nan;95587.47;5048432;28;20033;-76
2022/09/25 01:08:00;;;;;;;24.92;11.73;;;;;;;10.31;nan;95566.22;5049558;28;20138;-75
2022/09/25 01:10:27;;;;;;;23.10;12.43;;;;;;;10.49;nan;95576.34;5050618;28;20032;-75
2022/09/25 01:12:54;;;;;;;20.23;12.55;;;;;;;9.93;nan;95509.91;5049984;28;20036;-75
2022/09/25 01:15:36;;;;;;;20.00;11.98;;;;;;;10.19;nan;95553.22;5049840;28;20033;-76
2022/09/25 01:18:21;;;;;;;22.98;11.75;;;;;;;9.90;nan;95502.50;5049782;28;20402;-76
2022/09/25 01:20:56;;;;;;;21.35;11.23;;;;;;;10.37;nan;95575.81;5050022;28;20040;-75
2022/09/25 01:23:39;;;;;;;20.45;10.70;;;;;;;10.27;nan;95576.56;5049263;28;20115;-77
2022/09/25 01:26:27;;;;;;;30.00;11.98;;;;;;;10.25;nan;95576.03;5050053;28;20432;-75
2022/09/25 01:29:03;;;;;;;21.15;11.88;;;;;;;10.22;nan;95581.84;5023461;28;20041;-75
2022/09/25 01:31:41;;;;;;;24.95;12.45;;;;;;;10.20;nan;95569.94;5053569;28;20115;-75
2022/09/25 01:34:48;;;;;;;24.27;11.65;;;;;;;10.19;nan;95578.94;5053353;28;20029;-75
2022/09/25 01:37:48;;;;;;;19.60;11.57;;;;;;;10.11;nan;95584.69;5023914;28;20743;-75
2022/09/25 01:40:32;;;;;;;20.92;12.48;;;;;;;10.13;nan;95580.75;5039549;28;20048;-75
2022/09/25 01:43:13;;;;;;;26.05;12.70;;;;;;;10.17;nan;95588.97;5053075;28;20037;-75
2022/09/25 01:45:48;;;;;;;22.05;12.10;;;;;;;10.07;nan;95577.25;5051671;28;20482;-78
2022/09/25 01:48:19;;;;;;;24.05;12.57;;;;;;;9.66;nan;95522.56;5051515;28;20045;-77
2022/09/25 01:50:58;;;;;;;21.17;12.15;;;;;;;10.04;nan;95569.06;5052163;28;20593;-77
2022/09/25 01:53:33;;;;;;;21.90;12.60;;;;;;;9.88;nan;95552.31;5043788;28;20036;-76
2022/09/25 01:56:06;;;;;;;23.17;12.35;;;;;;;10.11;nan;95593.44;5050544;28;20116;-76
2022/09/25 01:58:40;;;;;;;21.30;12.32;;;;;;;9.61;nan;95528.59;5050783;28;20040;-76
2022/09/25 02:01:24;;;;;;;26.27;14.32;;;;;;;9.74;nan;95537.94;5050527;28;20159;-76
2022/09/25 02:03:58;;;;;;;26.88;13.82;;;;;;;9.61;nan;95511.94;5051876;28;20047;-77
2022/09/25 02:06:24;;;;;;;26.33;12.60;;;;;;;9.93;nan;95578.81;5050880;28;20445;-77
2022/09/25 02:09:33;;;;;;;21.95;12.48;;;;;;;9.01;nan;95431.19;5049191;28;20040;-77
2022/09/25 02:12:05;;;;;;;26.92;14.40;;;;;;;9.59;nan;95522.00;5049001;28;20087;-77
2022/09/25 02:14:59;;;;;;;27.98;13.63;;;;;;;9.91;nan;95565.03;5051399;28;20039;-77
2022/09/25 02:20:31;;;;;;;25.02;12.95;;;;;;;9.79;nan;95564.44;5051997;28;20072;-77
2022/09/25 02:23:10;;;;;;;26.75;13.75;;;;;;;9.81;nan;95582.72;5051503;28;20044;-77
2022/09/25 02:25:41;;;;;;;24.83;14.13;;;;;;;9.11;nan;95467.50;5050469;28;20033;-77
2022/09/25 02:28:07;;;;;;;;;;;;;;;9.84;nan;95590.94;5051357;28;20036;-77
2022/09/25 02:30:32;;;;;;;29.08;13.90;;;;;;;9.67;nan;95569.97;5050814;28;20332;-77
2022/09/25 02:32:58;;;;;;;22.42;13.02;;;;;;;9.82;nan;95586.97;5051223;28;20028;-77
2022/09/25 02:35:24;;;;;;;25.30;13.38;;;;;;;9.76;nan;95588.03;5051069;28;20470;-76
2022/09/25 02:37:51;;;;;;;23.08;13.25;;;;;;;9.29;nan;95512.84;5050746;28;20033;-77
2022/09/25 02:40:18;;;;;;;26.00;13.57;;;;;;;9.40;nan;95573.78;5049667;28;20085;-76
2022/09/25 02:43:04;;;;;;;22.05;13.23;;;;;;;9.51;nan;95588.69;5049455;28;20510;-76
2022/09/25 02:45:35;;;;;;;24.83;14.00;;;;;;;9.58;nan;95581.31;5050547;28;20033;-76
2022/09/25 02:48:37;;;;;;;20.35;13.63;;;;;;;9.66;nan;95581.63;5050570;28;20477;-76
2022/09/25 02:51:53;;;;;;;28.13;13.60;;;;;;;9.65;nan;95587.16;5048095;28;20040;-76
2022/09/25 02:54:30;;;;;;;21.33;12.88;;;;;;;9.67;nan;95585.06;5024146;28;20075;-77
2022/09/25 02:57:05;;;;;;;23.80;13.63;;;;;;;9.68;nan;95586.66;5049872;28;20037;-76
2022/09/25 02:59:49;;;;;;;22.83;13.55;;;;;;;9.64;nan;95583.72;5041782;28;20029;-77
2022/09/25 03:02:15;;;;;;;24.80;12.75;;;;;;;9.12;nan;95499.00;5049246;28;20028;-77
2022/09/25 03:04:43;;;;;;;23.45;12.63;;;;;;;8.93;nan;95479.28;5049019;28;20036;-77
2022/09/25 03:07:10;;;;;;;21.95;12.73;;;;;;;9.31;nan;95528.47;5048946;28;20161;-76
2022/09/25 03:09:40;;;;;;;23.73;12.20;;;;;;;9.48;nan;95568.00;5048872;28;20032;-76
2022/09/25 03:12:05;;;;;;;20.33;13.55;;;;;;;9.15;nan;95517.03;5050244;28;20209;-76
2022/09/25 03:14:31;;;;;;;20.85;14.43;;;;;;;9.46;nan;95565.59;5048461;28;20135;-77
2022/09/25 03:17:02;;;;;;;27.63;14.93;;;;;;;9.39;nan;95551.00;5050572;28;20474;-76
2022/09/25 03:19:28;;;;;;;22.20;13.17;;;;;;;9.56;nan;95578.09;5048758;28;20031;-76
2022/09/25 03:21:54;;;;;;;20.90;12.75;;;;;;;9.57;nan;95567.25;5048469;28;20034;-76
2022/09/25 03:24:20;;;;;;;24.77;14.07;;;;;;;9.42;nan;95550.50;5050024;28;20129;-76
2022/09/25 03:26:45;;;;;;;21.70;13.55;;;;;;;9.47;nan;95553.16;5049813;28;20163;-76
2022/09/25 03:29:13;;;;;;;23.80;13.38;;;;;;;9.65;nan;95574.72;5050109;28;20064;-77
2022/09/25 03:31:41;;;;;;;20.70;13.25;;;;;;;9.15;nan;95500.34;5047661;28;20036;-77
2022/09/25 03:34:06;;;;;;;28.73;15.00;;;;;;;9.02;nan;95472.47;5050179;28;20118;-76
2022/09/25 03:36:33;;;;;;;23.10;13.02;;;;;;;9.45;nan;95550.00;5048687;28;20053;-76
2022/09/25 03:38:59;;;;;;;27.88;14.27;;;;;;;8.99;nan;95491.53;5048809;28;20043;-76
2022/09/25 03:41:30;;;;;;;22.75;13.30;;;;;;;9.03;nan;95494.44;5047808;28;20127;-76
2022/09/25 03:43:56;;;;;;;25.43;12.77;;;;;;;9.36;nan;95530.34;5050106;28;20037;-77
2022/09/25 03:46:25;;;;;;;19.80;13.00;;;;;;;9.27;nan;95524.75;5050178;28;20298;-76
2022/09/25 03:48:52;;;;;;;24.88;12.52;;;;;;;9.62;nan;95577.06;5049381;28;20563;-76
2022/09/25 03:51:18;;;;;;;23.40;14.27;;;;;;;9.67;nan;95575.25;5046996;28;20033;-77
2022/09/25 03:53:44;;;;;;;25.75;12.98;;;;;;;9.65;nan;95577.38;5047615;28;20044;-76
2022/09/25 03:56:19;;;;;;;27.15;13.38;;;;;;;9.13;nan;95502.44;5050600;28;20045;-76
2022/09/25 03:58:45;;;;;;;28.73;13.02;;;;;;;9.44;nan;95548.41;5047628;28;20033;-76
2022/09/25 04:01:12;;;;;;;24.42;13.25;;;;;;;9.24;nan;95519.94;5049150;28;20091;-76
2022/09/25 04:03:38;;;;;;;26.90;12.38;;;;;;;9.66;nan;95591.41;5048876;28;20457;-77
2022/09/25 04:06:06;;;;;;;24.63;14.20;;;;;;;9.45;nan;95560.59;5048047;28;20039;-75
2022/09/25 04:08:33;;;;;;;21.75;13.13;;;;;;;9.66;nan;95583.47;5049105;28;20098;-76
2022/09/25 04:10:59;;;;;;;25.80;13.07;;;;;;;8.78;nan;95473.91;5047391;28;20047;-77
2022/09/25 04:13:30;;;;;;;26.02;13.57;;;;;;;9.64;nan;95593.50;5048297;28;20035;-77
2022/09/25 04:15:56;;;;;;;27.35;12.93;;;;;;;9.61;nan;95597.44;5047596;28;20521;-77
2022/09/25 04:18:23;;;;;;;30.60;13.80;;;;;;;9.25;nan;95556.75;5048084;28;20069;-77
2022/09/25 04:20:49;;;;;;;26.55;12.77;;;;;;;9.27;nan;95567.88;5049285;28;20462;-76
2022/09/25 04:23:14;;;;;;;24.98;12.85;;;;;;;8.98;nan;95526.94;5048064;28;20037;-77
2022/09/25 04:25:40;;;;;;;21.27;12.20;;;;;;;9.40;nan;95594.94;5047744;28;20033;-76
2022/09/25 04:28:05;;;;;;;25.92;12.43;;;;;;;8.82;nan;95526.06;5047643;28;20039;-77
2022/09/25 04:30:32;;;;;;;24.10;13.88;;;;;;;8.90;nan;95540.66;5048775;28;20036;-76
2022/09/25 04:35:42;;;;;;;25.77;13.35;;;;;;;9.27;nan;95590.91;5049375;28;20537;-77
2022/09/25 04:38:08;;;;;;;31.20;13.93;;;;;;;8.76;nan;95518.34;5046933;28;20029;-75
2022/09/25 04:40:34;;;;;;;26.42;12.38;;;;;;;9.23;nan;95595.91;5049070;28;20052;-77
2022/09/25 04:43:02;;;;;;;25.88;12.95;;;;;;;9.19;nan;95596.66;5048767;28;20063;-78
2022/09/25 04:45:29;;;;;;;21.92;13.15;;;;;;;8.64;nan;95523.78;5048573;28;20110;-77
2022/09/25 04:47:58;;;;;;;21.60;13.55;;;;;;;9.18;nan;95608.31;5048937;28;20025;-77
2022/09/25 04:50:24;;;;;;;23.05;12.95;;;;;;;9.13;nan;95598.50;5046519;28;20438;-76
2022/09/25 04:52:51;;;;;;;22.77;12.90;;;;;;;8.50;nan;95502.25;5048350;28;20215;-76
2022/09/25 04:55:23;;;;;;;22.90;13.52;;;;;;;8.96;nan;95567.94;5046090;28;20056;-76
2022/09/25 04:57:52;;;;;;;34.95;15.27;;;;;;;9.23;nan;95589.84;5048558;28;20032;-76
2022/09/25 05:00:18;;;;;;;26.98;13.10;;;;;;;8.73;nan;95532.03;5048217;28;20040;-77
2022/09/25 05:02:47;;;;;;;24.73;13.60;;;;;;;9.24;nan;95594.06;5050993;28;20033;-77
2022/09/25 05:05:13;;;;;;;27.40;13.10;;;;;;;9.27;nan;95598.84;5050099;28;20040;-76
2022/09/25 05:07:38;;;;;;;31.40;14.10;;;;;;;8.57;nan;95559.41;5051858;28;20037;-76
2022/09/25 05:10:07;;;;;;;27.45;14.15;;;;;;;8.96;nan;95578.50;5052092;28;20029;-77
2022/09/25 05:12:33;;;;;;;22.33;13.30;;;;;;;8.77;nan;95531.28;5051371;28;20040;-77
2022/09/25 05:14:58;;;;;;;21.77;12.45;;;;;;;8.86;nan;95532.41;5051663;28;20025;-77
2022/09/25 05:17:23;;;;;;;22.58;12.70;;;;;;;9.00;nan;95538.06;5053615;28;20126;-77
2022/09/25 05:19:49;;;;;;;23.08;11.60;;;;;;;9.31;nan;95570.81;5052943;28;20033;-77
2022/09/25 05:22:14;;;;;;;24.88;12.77;;;;;;;9.57;nan;95598.25;5052932;28;20466;-77
2022/09/25 05:24:39;;;;;;;23.73;11.80;;;;;;;9.22;nan;95545.91;5051532;28;20037;-77
2022/09/25 05:27:05;;;;;;;21.42;12.48;;;;;;;9.40;nan;95556.03;5053380;28;20033;-77
2022/09/25 05:29:31;;;;;;;19.92;11.85;;;;;;;9.30;nan;95529.53;5052748;28;20483;-77
2022/09/25 05:31:56;;;;;;;26.58;12.27;;;;;;;9.69;nan;95590.88;5051961;28;20033;-77
2022/09/25 05:34:22;;;;;;;20.33;10.57;;;;;;;9.65;nan;95572.06;5052051;28;20041;-77
2022/09/25 05:36:47;;;;;;;21.48;11.90;;;;;;;9.74;nan;95576.88;5051117;28;20506;-77
2022/09/25 05:39:13;;;;;;;21.05;11.65;;;;;;;9.38;nan;95515.03;5052936;28;20021;-77
2022/09/25 05:41:38;;;;;;;22.08;10.85;;;;;;;9.61;nan;95562.25;5050900;28;20053;-77
2022/09/25 05:44:08;;;;;;;25.65;11.40;;;;;;;9.62;nan;95561.97;5051727;28;20116;-77
2022/09/25 05:46:37;;;;;;;24.92;12.68;;;;;;;9.99;nan;95593.66;5050141;28;20106;-77
2022/09/25 05:49:03;;;;;;;28.25;14.45;;;;;;;9.58;nan;95523.84;5051203;28;20075;-77
2022/09/25 05:51:29;;;;;;;22.58;14.13;;;;;;;10.04;nan;95606.16;5050684;28;20025;-77
2022/09/25 05:53:55;;;;;;;32.03;15.32;;;;;;;9.90;nan;95578.53;5051305;28;20039;-77
2022/09/25 05:56:23;;;;;;;29.55;14.45;;;;;;;9.94;nan;95569.00;5051494;28;20033;-78
2022/09/25 05:58:49;;;;;;;35.13;14.90;;;;;;;10.08;nan;95596.59;5050794;28;20037;-78
2022/09/25 06:01:15;;;;;;;35.08;14.48;;;;;;;10.26;nan;95604.13;5051108;28;20043;-78
2022/09/25 06:03:41;;;;;;;25.85;14.20;;;;;;;9.75;nan;95512.25;5051572;28;20471;-78
2022/09/25 06:06:07;;;;;;;30.70;14.80;;;;;;;10.37;nan;95600.47;5051426;28;20398;-77
2022/09/25 06:08:34;;;;;;;21.55;13.73;;;;;;;10.34;nan;95585.06;5051731;28;20041;-78
2022/09/25 06:11:01;;;;;;;21.38;12.45;;;;;;;10.04;nan;95526.66;5050700;28;20590;-77
2022/09/25 06:13:28;;;;;;;25.55;13.10;;;;;;;10.42;nan;95575.81;5051958;28;20064;-78
2022/09/25 06:15:55;;;;;;;24.98;12.95;;;;;;;10.67;nan;95590.97;5049348;28;20033;-77
2022/09/25 06:18:23;;;;;;;23.58;13.23;;;;;;;10.48;nan;95548.22;5051696;28;20089;-78
2022/09/25 06:20:49;;;;;;;23.05;12.35;;;;;;;10.58;nan;95547.47;5051901;28;20434;-77
2022/09/25 06:23:15;;;;;;;25.13;12.30;;;;;;;10.96;nan;95593.91;5050800;28;20029;-78
2022/09/25 06:25:40;;;;;;;23.92;12.85;;;;;;;10.48;nan;95510.31;5051019;28;20062;-77
2022/09/25 06:28:07;;;;;;;21.30;12.73;;;;;;;10.86;nan;95556.75;5050759;28;20029;-77
2022/09/25 06:30:34;;;;;;;20.90;11.98;;;;;;;11.09;nan;95603.97;5049648;28;20418;-77
2022/09/25 06:33:11;;;;;;;19.20;12.32;;;;;;;11.16;nan;95591.25;5051517;28;20471;-77
2022/09/25 06:35:45;;;;;;;21.23;11.80;;;;;;;11.40;nan;95613.53;5049994;28;20128;-78
2022/09/25 06:38:13;;;;;;;23.55;12.50;;;;;;;11.17;nan;95556.47;5049066;28;20040;-77
2022/09/25 06:40:39;;;;;;;22.45;13.88;;;;;;;11.42;nan;95602.63;5049645;28;20060;-77
2022/09/25 06:43:08;;;;;;;19.58;12.48;;;;;;;11.34;nan;95563.34;5051489;28;20037;-78
2022/09/25 06:45:33;;;;;;;25.48;11.77;;;;;;;11.69;nan;95597.00;5049675;28;20711;-78
2022/09/25 06:48:04;;;;;;;24.65;12.20;;;;;;;11.51;nan;95548.72;5050565;28;20035;-77
2022/09/25 06:50:50;;;;;;;22.43;12.40;;;;;;;11.60;nan;95563.00;5034807;28;20048;-78
2022/09/25 06:53:18;;;;;;;20.00;11.80;;;;;;;11.89;nan;95589.00;5049312;28;20025;-78
2022/09/25 06:55:44;;;;;;;19.73;11.20;;;;;;;11.54;nan;95526.09;5050813;28;20499;-78
2022/09/25 06:58:12;;;;;;;16.92;11.50;;;;;;;12.04;nan;95593.47;5049076;28;20029;-78
2022/09/25 07:00:38;;;;;;;17.60;10.55;;;;;;;12.13;nan;95592.63;5049778;28;20044;-77
2022/09/25 07:05:48;;;;;;;15.95;11.18;;;;;;;12.23;nan;95597.09;5050230;28;20036;-77
2022/09/25 07:08:16;;;;;;;21.33;11.82;;;;;;;12.20;nan;95573.72;5048168;28;20029;-77
2022/09/25 07:10:53;;;;;;;19.30;10.45;;;;;;;12.33;nan;95618.34;5048947;28;20127;-77
2022/09/25 07:13:23;;;;;;;17.67;10.00;;;;;;;12.09;nan;95569.50;5049106;28;20033;-77
2022/09/25 07:15:56;;;;;;;16.20;9.80;;;;;;;12.34;nan;95603.97;5050470;28;20037;-77
2022/09/25 07:18:23;;;;;;;16.15;10.30;;;;;;;12.65;nan;95621.38;5049811;28;20230;-77
2022/09/25 07:20:49;;;;;;;14.68;10.57;;;;;;;12.15;nan;95542.63;5049023;28;20064;-77
2022/09/25 07:23:17;;;;;;;19.45;11.63;;;;;;;12.69;nan;95625.06;5050807;28;20032;-77
2022/09/25 07:25:45;;;;;;;17.88;10.38;;;;;;;12.51;nan;95623.00;5048351;28;20169;-77
2022/09/25 07:28:14;;;;;;;18.42;11.20;;;;;;;12.52;nan;95629.94;5048283;28;20036;-77
2022/09/25 07:30:41;;;;;;;17.05;10.07;;;;;;;12.69;nan;95630.38;5048369;28;20418;-77
2022/09/25 07:33:06;;;;;;;16.33;10.52;;;;;;;12.59;nan;95608.34;5048500;28;20036;-77
2022/09/25 07:35:35;;;;;;;21.15;11.88;;;;;;;12.64;nan;95622.44;5050403;28;20049;-77
2022/09/25 07:38:02;;;;;;;16.25;10.68;;;;;;;12.52;nan;95618.50;5048866;28;20068;-77
2022/09/25 07:40:28;;;;;;;17.00;10.88;;;;;;;12.57;nan;95610.50;5048055;28;20040;-77
2022/09/25 07:43:00;;;;;;;17.92;10.68;;;;;;;12.26;nan;95562.78;5049805;28;20071;-77
2022/09/25 07:45:26;;;;;;;13.45;9.25;;;;;;;12.16;nan;95533.59;5048028;28;20415;-77
2022/09/25 07:48:00;;;;;;;14.48;9.63;;;;;;;12.54;nan;95579.09;5048491;28;20200;-77
2022/09/25 07:50:29;;;;;;;15.43;8.88;;;;;;;12.63;nan;95602.22;5048933;28;20517;-77
2022/09/25 07:52:55;;;;;;;16.02;10.18;;;;;;;12.65;nan;95572.66;5047192;28;20083;-77
2022/09/25 07:55:21;;;;;;;14.93;9.82;;;;;;;12.37;nan;95516.44;5049129;28;20483;-77
2022/09/25 07:57:48;;;;;;;17.67;10.73;;;;;;;12.60;nan;95533.56;5049694;28;20041;-77
2022/09/25 08:00:14;;;;;;;16.60;10.32;;;;;;;12.65;nan;95528.22;5047401;28;20064;-77
2022/09/25 08:02:39;;;;;;;15.40;9.73;;;;;;;12.91;nan;95568.75;5049610;28;20041;-77
2022/09/25 08:05:05;;;;;;;12.88;7.88;;;;;;;12.59;nan;95524.00;5045975;28;20056;-77
2022/09/25 08:07:31;;;;;;;12.68;7.93;;;;;;;12.12;nan;95463.44;5049129;28;20024;-77
2022/09/25 08:09:56;;;;;;;14.02;6.43;;;;;;;12.85;nan;95569.06;5046519;28;20043;-77
2022/09/25 08:12:25;;;;;;;15.23;8.10;;;;;;;12.61;nan;95532.50;5048004;28;20035;-77
2022/09/25 08:14:51;;;;;;;13.32;8.75;;;;;;;12.89;nan;95575.44;5047513;28;20055;-77
2022/09/25 08:17:18;;;;;;;19.40;8.88;;;;;;;12.67;nan;95530.59;5047944;28;20059;-77
2022/09/25 08:19:44;;;;;;;11.85;7.55;;;;;;;13.00;nan;95564.41;5047111;28;20033;-77
2022/09/25 08:22:09;;;;;;;15.75;8.88;;;;;;;12.89;nan;95551.47;5047892;28;20074;-77
2022/09/25 08:24:35;;;;;;;14.43;8.35;;;;;;;12.82;nan;95521.69;5048595;28;20442;-77
2022/09/25 08:27:00;;;;;;;17.20;9.52;;;;;;;13.13;nan;95563.78;5049895;28;20035;-77
2022/09/25 08:29:26;;;;;;;18.45;9.38;;;;;;;12.99;nan;95511.44;5047433;28;20060;-77
2022/09/25 08:31:52;;;;;;;16.55;9.48;;;;;;;13.29;nan;95548.47;5048289;28;20047;-77
2022/09/25 08:34:17;;;;;;;15.77;9.18;;;;;;;13.33;nan;95530.06;5048748;28;20109;-77
2022/09/25 08:36:43;;;;;;;16.50;10.70;;;;;;;12.95;nan;95471.28;5030000;28;20410;-77
2022/09/25 08:39:09;;;;;;;18.35;9.70;;;;;;;13.18;nan;95485.75;5049413;28;20503;-77
2022/09/25 08:41:47;;;;;;;15.00;8.93;;;;;;;13.07;nan;95468.22;5047894;28;20052;-77
2022/09/25 08:44:25;;;;;;;13.60;8.80;;;;;;;13.53;nan;95527.19;5047109;28;20079;-77
2022/09/25 08:50:13;;;;;;;18.33;7.97;;;;;;;13.36;nan;95493.00;5038483;28;20122;-77
2022/09/25 08:52:43;;;;;;;18.25;7.57;;;;;;;13.36;nan;95477.00;5046328;28;20029;-77
2022/09/25 08:56:13;;;;;;;14.82;6.80;;;;;;;13.61;nan;95539.88;5046993;28;20498;-77
2022/09/25 08:58:23;;;;;;;12.90;6.97;;;;;;;13.75;nan;95537.31;5048791;28;20375;-76
2022/09/25 09:00:53;;;;;;;10.00;6.30;;;;;;;13.47;nan;95497.13;5048443;28;20512;-76
2022/09/25 09:03:24;;;;;;;9.60;5.53;;;;;;;13.46;nan;95473.44;5048802;28;20037;-77
2022/09/25 09:06:03;;;;;;;9.90;5.75;;;;;;;13.83;nan;95504.72;5048600;28;20060;-77
2022/09/25 09:08:32;;;;;;;10.00;5.95;;;;;;;14.06;nan;95517.22;5048864;28;20112;-77
2022/09/25 09:11:03;;;;;;;12.90;5.60;;;;;;;13.96;nan;95487.25;5048420;28;20446;-77
2022/09/25 09:13:43;;;;;;;10.93;5.30;;;;;;;14.15;nan;95517.38;5048291;28;20039;-78
2022/09/25 09:16:18;;;;;;;11.85;4.68;;;;;;;13.95;nan;95457.13;5047266;28;20068;-77
2022/09/25 09:18:44;;;;;;;7.30;4.80;;;;;;;13.93;nan;95416.59;5047297;28;20037;-77
2022/09/25 09:21:32;;;;;;;6.25;4.45;;;;;;;14.55;nan;95500.03;5048673;28;20117;-78
2022/09/25 09:24:04;;;;;;;7.93;4.40;;;;;;;14.68;nan;95484.06;5047889;28;20513;-78
2022/09/25 09:26:33;;;;;;;8.35;4.05;;;;;;;14.82;nan;95481.44;5047195;28;20503;-78
2022/09/25 09:29:17;;;;;;;8.73;4.22;;;;;;;14.95;nan;95487.91;5048333;28;20461;-78
2022/09/25 09:31:52;;;;;;;8.88;4.10;;;;;;;15.13;nan;95489.72;5046866;28;20041;-78
2022/09/25 09:34:39;;;;;;;9.48;4.68;;;;;;;15.21;nan;95486.38;5047871;28;20040;-78
2022/09/25 09:37:28;;;;;;;21.60;9.52;;;;;;;15.30;nan;95491.84;5047531;28;20056;-78
2022/09/25 09:40:24;;;;;;;9.43;6.45;;;;;;;15.52;nan;95483.13;5048575;28;20554;-78
2022/09/25 09:42:56;;;;;;;7.65;4.70;;;;;;;15.79;nan;95480.50;5046444;28;20037;-78
2022/09/25 09:45:31;;;;;;;6.50;4.50;;;;;;;15.92;nan;95479.69;5046671;28;20511;-78
2022/09/25 09:48:51;;;;;;;9.25;3.92;;;;;;;15.40;nan;95382.88;5049540;28;20399;-78
2022/09/25 09:51:34;;;;;;;6.88;4.35;;;;;;;16.12;nan;95475.78;4989938;28;20117;-78
2022/09/25 09:54:10;;;;;;;6.82;4.63;;;;;;;16.36;nan;95462.94;5042097;28;20047;-78
2022/09/25 09:56:37;;;;;;;8.10;4.22;;;;;;;16.83;nan;95434.00;5052033;28;20037;-78
2022/09/25 09:59:06;;;;;;;5.32;3.63;;;;;;;17.08;nan;95464.72;5051160;28;20502;-79
2022/09/25 10:01:36;;;;;;;9.15;3.90;;;;;;;17.19;nan;95370.34;5051185;28;20033;-79
2022/09/25 10:04:27;;;;;;;11.82;4.32;;;;;;;18.77;nan;95452.31;5049607;28;20041;-76
2022/09/25 10:06:58;;;;;;;7.72;3.97;;;;;;;19.81;nan;95426.69;5051957;28;20094;-77
2022/09/25 10:09:25;;;;;;;8.40;3.80;;;;;;;20.94;nan;95429.31;5037910;28;20437;-78
2022/09/25 10:11:59;;;;;;;7.38;3.92;;;;;;;21.89;nan;95418.22;5051770;28;20158;-78
2022/09/25 10:14:32;;;;;;;9.90;4.43;;;;;;;23.11;nan;95431.38;5050321;28;20022;-78
2022/09/25 10:16:59;;;;;;;9.07;4.50;;;;;;;23.12;nan;95392.34;5052802;28;20123;-78
2022/09/25 10:19:27;;;;;;;8.80;3.25;;;;;;;23.75;nan;95401.28;5051472;28;20029;-78
2022/09/25 10:21:59;;;;;;;6.38;3.28;;;;;;;24.43;nan;95436.88;5050331;28;20045;-78
2022/09/25 10:24:57;;;;;;;5.43;3.80;;;;;;;24.74;nan;95437.91;5049152;28;20040;-78
2022/09/25 10:27:46;;;;;;;6.13;3.20;;;;;;;24.78;nan;95417.06;5050696;28;20029;-77
2022/09/25 10:30:19;;;;;;;6.82;3.60;;;;;;;24.78;nan;95417.06;5049567;28;20566;-77
2022/09/25 10:33:01;;;;;;;5.28;3.38;;;;;;;25.96;nan;95423.41;5051081;28;20445;-77
2022/09/25 10:35:41;;;;;;;4.35;3.05;;;;;;;25.99;nan;95406.41;5050356;28;20103;-77
2022/09/25 10:38:25;;;;;;;8.10;3.67;;;;;;;26.62;nan;95408.44;5049673;28;20079;-77
2022/09/25 10:41:08;;;;;;;7.28;3.53;;;;;;;26.66;nan;95411.97;5049305;28;20654;-77
2022/09/25 10:43:33;;;;;;;3.88;3.25;;;;;;;26.35;nan;95384.00;5049769;28;20061;-77
2022/09/25 10:46:13;;;;;;;6.20;3.67;;;;;;;26.45;nan;95391.53;5048612;28;20517;-77
2022/09/25 10:51:25;;;;;;;5.28;3.63;;;;;;;26.51;nan;95383.81;5050913;28;20124;-77
2022/09/25 10:54:11;;;;;;;9.38;3.78;;;;;;;26.40;nan;95401.94;5048640;28;20033;-77
2022/09/25 10:56:37;;;;;;;4.95;3.38;;;;;;;26.28;nan;95375.78;5050242;28;20083;-78
2022/09/25 10:59:13;;;;;;;4.53;3.08;;;;;;;26.09;nan;95349.47;5050865;28;20028;-78
2022/09/25 11:01:41;;;;;;;4.95;3.38;;;;;;;26.23;nan;95331.78;5051346;28;20158;-78
2022/09/25 11:04:24;;;;;;;9.00;3.17;;;;;;;26.45;nan;95352.69;5049035;28;20040;-78
2022/09/25 11:06:57;;;;;;;6.80;3.33;;;;;;;27.15;nan;95374.47;5047649;28;20032;-78
2022/09/25 11:09:25;;;;;;;4.65;2.92;;;;;;;26.76;nan;95313.38;5048977;28;20033;-78
2022/09/25 11:11:52;;;;;;;4.75;2.67;;;;;;;27.28;nan;95378.47;5050087;28;20090;-78
2022/09/25 11:14:32;;;;;;;3.72;2.90;;;;;;;27.47;nan;95372.00;5048716;28;20029;-78
2022/09/25 11:16:59;;;;;;;4.47;2.83;;;;;;;26.79;nan;95346.06;5049674;28;20040;-78
2022/09/25 11:19:27;;;;;;;5.13;3.20;;;;;;;27.34;nan;95376.16;5048331;28;20071;-78
2022/09/25 11:22:08;;;;;;;3.90;2.47;;;;;;;27.64;nan;95374.13;5048379;28;20051;-78
2022/09/25 11:24:57;;;;;;;9.73;3.08;;;;;;;27.41;nan;95289.09;5048305;28;20145;-78
2022/09/25 11:27:33;;;;;;;4.93;2.95;;;;;;;28.08;nan;95369.72;5048391;28;20051;-78
2022/09/25 11:30:07;;;;;;;9.00;2.85;;;;;;;28.03;nan;95371.66;5049852;28;20044;-78
2022/09/25 11:32:57;;;;;;;4.22;2.72;;;;;;;27.48;nan;95370.06;5049819;28;20036;-78
2022/09/25 11:35:51;;;;;;;4.05;2.50;;;;;;;27.59;nan;95360.84;5044473;28;20082;-78
2022/09/25 11:41:35;;;;;;;3.60;2.88;;;;;;;28.15;nan;95353.44;5050154;28;20068;-78
2022/09/25 11:44:25;;;;;;;5.18;2.67;;;;;;;28.04;nan;95271.59;5049831;28;20637;-78
2022/09/25 11:47:19;;;;;;;3.20;2.47;;;;;;;28.35;nan;95349.25;5049177;28;20484;-78
2022/09/25 11:49:50;;;;;;;5.43;3.28;;;;;;;28.29;nan;95346.13;5048503;28;20036;-78
2022/09/25 11:52:21;;;;;;;6.22;3.13;;;;;;;28.46;nan;95338.38;5048503;28;20036;-78
2022/09/25 11:55:10;;;;;;;11.05;5.05;;;;;;;28.38;nan;95283.81;5048430;28;20041;-78
2022/09/25 11:57:51;;;;;;;5.82;3.10;;;;;;;29.07;nan;95329.22;5049229;28;20537;-78
2022/09/25 12:00:19;;;;;;;6.22;2.90;;;;;;;29.00;nan;95332.72;5048801;28;20037;-78
2022/09/25 12:03:22;;;;;;;3.92;2.33;;;;;;;29.25;nan;95324.56;5049275;28;20037;-77
2022/09/25 12:06:13;;;;;;;4.03;2.72;;;;;;;29.56;nan;95314.81;5047585;28;20041;-78
2022/09/25 12:09:28;;;;;;;6.47;2.40;;;;;;;29.51;nan;95316.00;5048236;28;20044;-78
2022/09/25 12:12:17;;;;;;;4.18;2.55;;;;;;;29.21;nan;95252.00;4986832;28;20181;-78
2022/09/25 12:14:45;;;;;;;4.43;2.50;;;;;;;29.86;nan;95306.19;4971148;28;20099;-78
2022/09/25 12:17:32;;;;;;;6.10;2.53;;;;;;;29.95;nan;95305.81;5018558;28;20090;-78
2022/09/25 12:20:00;;;;;;;6.57;2.65;;;;;;;29.68;nan;95313.63;5047996;28;20032;-78
2022/09/25 12:23:12;;;;;;;4.50;2.60;;;;;;;29.89;nan;95306.19;5048406;28;20173;-78